sensor_id;sensor_type;location;lat;lon;timestamp;temperature;humidity
31967;DHT22;18496;52.042;6.812;2024-03-02T00:02:53;10.60;99.90
31967;DHT22;18496;52.042;6.812;2024-03-02T00:04:57;10.50;99.90
31967;DHT22;18496;52.042;6.812;2024-03-02T00:07:00;10.50;99.90
31967;DHT22;18496;52.042;6.812;2024-03-02T00:09:04;10.50;99.90
31967;DHT22;18496;52.042;6.812;2024-03-02T00:11:08;10.50;99.90
31967;DHT22;18496;52.042;6.812;2024-03-02T00:13:13;10.60;99.90
31967;DHT22;18496;52.042;6.812;2024-03-02T00:17:41;10.60;99.90
31967;DHT22;18496;52.042;6.812;2024-03-02T00:19:45;10.60;99.90
31967;DHT22;18496;52.042;6.812;2024-03-02T00:21:49;10.60;99.90
31967;DHT22;18496;52.042;6.812;2024-03-02T00:23:53;10.60;99.90
31967;DHT22;18496;52.042;6.812;2024-03-02T00:25:57;10.60;99.90
31967;DHT22;18496;52.042;6.812;2024-03-02T00:28:01;10.60;99.90
31967;DHT22;18496;52.042;6.812;2024-03-02T00:32:56;10.60;99.90
31967;DHT22;18496;52.042;6.812;2024-03-02T00:35:00;10.60;99.90
31967;DHT22;18496;52.042;6.812;2024-03-02T00:37:04;10.50;99.90
31967;DHT22;18496;52.042;6.812;2024-03-02T00:39:08;10.60;99.90
31967;DHT22;18496;52.042;6.812;2024-03-02T00:41:21;10.60;99.90
31967;DHT22;18496;52.042;6.812;2024-03-02T00:43:48;10.60;99.90
31967;DHT22;18496;52.042;6.812;2024-03-02T00:45:52;10.70;99.90
31967;DHT22;18496;52.042;6.812;2024-03-02T00:47:55;10.70;99.90
31967;DHT22;18496;52.042;6.812;2024-03-02T00:49:59;10.70;99.90
31967;DHT22;18496;52.042;6.812;2024-03-02T00:52:03;10.70;99.90
31967;DHT22;18496;52.042;6.812;2024-03-02T00:54:08;10.70;99.90
31967;DHT22;18496;52.042;6.812;2024-03-02T00:56:12;10.60;99.90
31967;DHT22;18496;52.042;6.812;2024-03-02T00:58:16;10.60;99.90
31967;DHT22;18496;52.042;6.812;2024-03-02T01:00:20;10.60;99.90
31967;DHT22;18496;52.042;6.812;2024-03-02T01:02:24;10.60;99.90
31967;DHT22;18496;52.042;6.812;2024-03-02T01:04:27;10.60;99.90
31967;DHT22;18496;52.042;6.812;2024-03-02T01:06:31;10.60;99.90
31967;DHT22;18496;52.042;6.812;2024-03-02T01:08:35;10.60;99.90
31967;DHT22;18496;52.042;6.812;2024-03-02T01:10:39;10.60;99.90
31967;DHT22;18496;52.042;6.812;2024-03-02T01:12:43;10.50;99.90
31967;DHT22;18496;52.042;6.812;2024-03-02T01:14:46;10.60;99.90
31967;DHT22;18496;52.042;6.812;2024-03-02T01:16:50;10.60;99.90
31967;DHT22;18496;52.042;6.812;2024-03-02T01:18:54;10.50;99.90
31967;DHT22;18496;52.042;6.812;2024-03-02T01:20:58;10.50;99.90
31967;DHT22;18496;52.042;6.812;2024-03-02T01:23:01;10.50;99.90
31967;DHT22;18496;52.042;6.812;2024-03-02T01:25:05;10.50;99.90
31967;DHT22;18496;52.042;6.812;2024-03-02T01:27:09;10.50;99.90
31967;DHT22;18496;52.042;6.812;2024-03-02T01:29:13;10.50;99.90
31967;DHT22;18496;52.042;6.812;2024-03-02T01:31:16;10.50;99.90
31967;DHT22;18496;52.042;6.812;2024-03-02T01:33:20;10.60;99.90
31967;DHT22;18496;52.042;6.812;2024-03-02T01:35:24;10.60;99.90
31967;DHT22;18496;52.042;6.812;2024-03-02T01:37:30;10.60;99.90
31967;DHT22;18496;52.042;6.812;2024-03-02T01:39:33;10.50;99.90
31967;DHT22;18496;52.042;6.812;2024-03-02T01:41:37;10.60;99.90
31967;DHT22;18496;52.042;6.812;2024-03-02T01:43:41;10.60;99.90
31967;DHT22;18496;52.042;6.812;2024-03-02T01:45:45;10.60;99.90
31967;DHT22;18496;52.042;6.812;2024-03-02T01:47:48;10.60;99.90
31967;DHT22;18496;52.042;6.812;2024-03-02T01:49:52;10.60;99.90
31967;DHT22;18496;52.042;6.812;2024-03-02T01:51:56;10.60;99.90
31967;DHT22;18496;52.042;6.812;2024-03-02T01:54:00;10.50;99.90
31967;DHT22;18496;52.042;6.812;2024-03-02T01:56:04;10.40;99.90
31967;DHT22;18496;52.042;6.812;2024-03-02T01:58:07;10.40;99.90
31967;DHT22;18496;52.042;6.812;2024-03-02T02:00:12;10.40;99.90
31967;DHT22;18496;52.042;6.812;2024-03-02T02:02:16;10.40;99.90
31967;DHT22;18496;52.042;6.812;2024-03-02T02:04:20;10.40;99.90
31967;DHT22;18496;52.042;6.812;2024-03-02T02:06:30;10.40;99.90
31967;DHT22;18496;52.042;6.812;2024-03-02T02:08:34;10.40;99.90
31967;DHT22;18496;52.042;6.812;2024-03-02T02:10:37;10.40;99.90
31967;DHT22;18496;52.042;6.812;2024-03-02T02:12:41;10.40;99.90
31967;DHT22;18496;52.042;6.812;2024-03-02T02:14:49;10.50;99.90
31967;DHT22;18496;52.042;6.812;2024-03-02T02:16:53;10.50;99.90
31967;DHT22;18496;52.042;6.812;2024-03-02T02:18:57;10.40;99.90
31967;DHT22;18496;52.042;6.812;2024-03-02T02:21:01;10.40;99.90
31967;DHT22;18496;52.042;6.812;2024-03-02T02:23:05;10.40;99.90
31967;DHT22;18496;52.042;6.812;2024-03-02T02:25:09;10.40;99.90
31967;DHT22;18496;52.042;6.812;2024-03-02T02:27:13;10.40;99.90
31967;DHT22;18496;52.042;6.812;2024-03-02T02:29:18;10.50;99.90
31967;DHT22;18496;52.042;6.812;2024-03-02T02:31:22;10.50;99.90
31967;DHT22;18496;52.042;6.812;2024-03-02T02:33:26;10.60;99.90
31967;DHT22;18496;52.042;6.812;2024-03-02T02:35:29;10.60;99.90
31967;DHT22;18496;52.042;6.812;2024-03-02T02:37:33;10.60;99.90
31967;DHT22;18496;52.042;6.812;2024-03-02T02:39:37;10.60;99.90
31967;DHT22;18496;52.042;6.812;2024-03-02T02:41:41;10.60;99.90
31967;DHT22;18496;52.042;6.812;2024-03-02T02:43:44;10.60;99.90
31967;DHT22;18496;52.042;6.812;2024-03-02T02:45:48;10.60;99.90
31967;DHT22;18496;52.042;6.812;2024-03-02T02:47:52;10.60;99.90
31967;DHT22;18496;52.042;6.812;2024-03-02T02:49:56;10.60;99.90
31967;DHT22;18496;52.042;6.812;2024-03-02T02:51:59;10.60;99.90
31967;DHT22;18496;52.042;6.812;2024-03-02T02:54:03;10.60;99.90
31967;DHT22;18496;52.042;6.812;2024-03-02T02:56:07;10.70;99.90
31967;DHT22;18496;52.042;6.812;2024-03-02T02:58:11;10.70;99.90
31967;DHT22;18496;52.042;6.812;2024-03-02T03:00:15;10.70;99.90
31967;DHT22;18496;52.042;6.812;2024-03-02T03:02:19;10.80;99.90
31967;DHT22;18496;52.042;6.812;2024-03-02T03:04:23;10.80;99.90
31967;DHT22;18496;52.042;6.812;2024-03-02T03:06:27;10.80;99.90
31967;DHT22;18496;52.042;6.812;2024-03-02T03:08:30;10.80;99.90
31967;DHT22;18496;52.042;6.812;2024-03-02T03:10:34;10.80;99.90
31967;DHT22;18496;52.042;6.812;2024-03-02T03:12:38;10.90;99.90
31967;DHT22;18496;52.042;6.812;2024-03-02T03:14:44;10.90;99.90
31967;DHT22;18496;52.042;6.812;2024-03-02T03:16:48;10.90;99.90
31967;DHT22;18496;52.042;6.812;2024-03-02T03:18:52;10.90;99.90
31967;DHT22;18496;52.042;6.812;2024-03-02T03:20:56;10.90;99.90
31967;DHT22;18496;52.042;6.812;2024-03-02T03:23:00;10.90;99.90
31967;DHT22;18496;52.042;6.812;2024-03-02T03:25:05;10.80;99.90
31967;DHT22;18496;52.042;6.812;2024-03-02T03:27:09;10.90;99.90
31967;DHT22;18496;52.042;6.812;2024-03-02T03:29:13;10.90;99.90
31967;DHT22;18496;52.042;6.812;2024-03-02T03:31:17;10.80;99.90
31967;DHT22;18496;52.042;6.812;2024-03-02T03:33:21;10.80;99.90
31967;DHT22;18496;52.042;6.812;2024-03-02T03:35:24;10.80;99.90
31967;DHT22;18496;52.042;6.812;2024-03-02T03:37:28;10.80;99.90
31967;DHT22;18496;52.042;6.812;2024-03-02T03:39:36;10.80;99.90
31967;DHT22;18496;52.042;6.812;2024-03-02T03:41:40;10.80;99.90
31967;DHT22;18496;52.042;6.812;2024-03-02T03:43:44;10.70;99.90
31967;DHT22;18496;52.042;6.812;2024-03-02T03:45:48;10.70;99.90
31967;DHT22;18496;52.042;6.812;2024-03-02T03:47:52;10.70;99.90
31967;DHT22;18496;52.042;6.812;2024-03-02T03:49:56;10.70;99.90
31967;DHT22;18496;52.042;6.812;2024-03-02T03:51:59;10.70;99.90
31967;DHT22;18496;52.042;6.812;2024-03-02T03:54:03;10.70;99.90
31967;DHT22;18496;52.042;6.812;2024-03-02T03:56:07;10.70;99.90
31967;DHT22;18496;52.042;6.812;2024-03-02T03:58:11;10.70;99.90
31967;DHT22;18496;52.042;6.812;2024-03-02T04:00:15;10.70;99.90
31967;DHT22;18496;52.042;6.812;2024-03-02T04:02:19;10.70;99.90
31967;DHT22;18496;52.042;6.812;2024-03-02T04:04:22;10.60;99.90
31967;DHT22;18496;52.042;6.812;2024-03-02T04:06:26;10.70;99.90
31967;DHT22;18496;52.042;6.812;2024-03-02T04:08:31;10.70;99.90
31967;DHT22;18496;52.042;6.812;2024-03-02T04:10:34;10.70;99.90
31967;DHT22;18496;52.042;6.812;2024-03-02T04:12:38;10.70;99.90
31967;DHT22;18496;52.042;6.812;2024-03-02T04:14:42;10.60;99.90
31967;DHT22;18496;52.042;6.812;2024-03-02T04:16:46;10.60;99.90
31967;DHT22;18496;52.042;6.812;2024-03-02T04:18:50;10.60;99.90
31967;DHT22;18496;52.042;6.812;2024-03-02T04:20:53;10.60;99.90
31967;DHT22;18496;52.042;6.812;2024-03-02T04:23:00;10.50;99.90
31967;DHT22;18496;52.042;6.812;2024-03-02T04:25:04;10.60;99.90
31967;DHT22;18496;52.042;6.812;2024-03-02T04:27:08;10.60;99.90
31967;DHT22;18496;52.042;6.812;2024-03-02T04:29:11;10.60;99.90
31967;DHT22;18496;52.042;6.812;2024-03-02T04:31:15;10.60;99.90
31967;DHT22;18496;52.042;6.812;2024-03-02T04:33:20;10.60;99.90
31967;DHT22;18496;52.042;6.812;2024-03-02T04:35:24;10.60;99.90
31967;DHT22;18496;52.042;6.812;2024-03-02T04:37:28;10.50;99.90
31967;DHT22;18496;52.042;6.812;2024-03-02T04:39:32;10.50;99.90
31967;DHT22;18496;52.042;6.812;2024-03-02T04:41:37;10.50;99.90
31967;DHT22;18496;52.042;6.812;2024-03-02T04:43:41;10.50;99.90
31967;DHT22;18496;52.042;6.812;2024-03-02T04:45:44;10.50;99.90
31967;DHT22;18496;52.042;6.812;2024-03-02T04:47:48;10.50;99.90
31967;DHT22;18496;52.042;6.812;2024-03-02T04:49:52;10.50;99.90
31967;DHT22;18496;52.042;6.812;2024-03-02T04:51:56;10.50;99.90
31967;DHT22;18496;52.042;6.812;2024-03-02T04:54:00;10.40;99.90
31967;DHT22;18496;52.042;6.812;2024-03-02T04:56:04;10.40;99.90
31967;DHT22;18496;52.042;6.812;2024-03-02T04:58:42;10.40;99.90
31967;DHT22;18496;52.042;6.812;2024-03-02T05:00:46;10.40;99.90
31967;DHT22;18496;52.042;6.812;2024-03-02T05:02:50;10.40;99.90
31967;DHT22;18496;52.042;6.812;2024-03-02T05:04:54;10.40;99.90
31967;DHT22;18496;52.042;6.812;2024-03-02T05:06:58;10.50;99.90
31967;DHT22;18496;52.042;6.812;2024-03-02T05:09:02;10.40;99.90
31967;DHT22;18496;52.042;6.812;2024-03-02T05:11:05;10.40;99.90
31967;DHT22;18496;52.042;6.812;2024-03-02T05:13:27;10.50;99.90
31967;DHT22;18496;52.042;6.812;2024-03-02T05:15:31;10.40;99.90
31967;DHT22;18496;52.042;6.812;2024-03-02T05:17:35;10.50;99.90
31967;DHT22;18496;52.042;6.812;2024-03-02T05:19:39;10.40;99.90
31967;DHT22;18496;52.042;6.812;2024-03-02T05:21:43;10.40;99.90
31967;DHT22;18496;52.042;6.812;2024-03-02T05:23:47;10.40;99.90
31967;DHT22;18496;52.042;6.812;2024-03-02T05:25:50;10.40;99.90
31967;DHT22;18496;52.042;6.812;2024-03-02T05:27:54;10.30;99.90
31967;DHT22;18496;52.042;6.812;2024-03-02T05:29:58;10.30;99.90
31967;DHT22;18496;52.042;6.812;2024-03-02T05:32:02;10.30;99.90
31967;DHT22;18496;52.042;6.812;2024-03-02T05:34:06;10.30;99.90
31967;DHT22;18496;52.042;6.812;2024-03-02T05:36:09;10.30;99.90
31967;DHT22;18496;52.042;6.812;2024-03-02T05:38:13;10.30;99.90
31967;DHT22;18496;52.042;6.812;2024-03-02T05:40:17;10.30;99.90
31967;DHT22;18496;52.042;6.812;2024-03-02T05:42:21;10.30;99.90
31967;DHT22;18496;52.042;6.812;2024-03-02T05:44:24;10.30;99.90
31967;DHT22;18496;52.042;6.812;2024-03-02T05:46:28;10.30;99.90
31967;DHT22;18496;52.042;6.812;2024-03-02T05:48:31;10.30;99.90
31967;DHT22;18496;52.042;6.812;2024-03-02T05:50:35;10.30;99.90
31967;DHT22;18496;52.042;6.812;2024-03-02T05:52:39;10.30;99.90
31967;DHT22;18496;52.042;6.812;2024-03-02T05:54:43;10.30;99.90
31967;DHT22;18496;52.042;6.812;2024-03-02T05:56:46;10.30;99.90
31967;DHT22;18496;52.042;6.812;2024-03-02T05:58:50;10.30;99.90
31967;DHT22;18496;52.042;6.812;2024-03-02T06:01:12;10.30;99.90
31967;DHT22;18496;52.042;6.812;2024-03-02T06:03:16;10.30;99.90
31967;DHT22;18496;52.042;6.812;2024-03-02T06:05:19;10.30;99.90
31967;DHT22;18496;52.042;6.812;2024-03-02T06:07:23;10.30;99.90
31967;DHT22;18496;52.042;6.812;2024-03-02T06:09:27;10.30;99.90
31967;DHT22;18496;52.042;6.812;2024-03-02T06:11:30;10.30;99.90
31967;DHT22;18496;52.042;6.812;2024-03-02T06:13:37;10.30;99.90
31967;DHT22;18496;52.042;6.812;2024-03-02T06:15:40;10.30;99.90
31967;DHT22;18496;52.042;6.812;2024-03-02T06:17:44;10.20;99.90
31967;DHT22;18496;52.042;6.812;2024-03-02T06:19:48;10.30;99.90
31967;DHT22;18496;52.042;6.812;2024-03-02T06:21:52;10.30;99.90
31967;DHT22;18496;52.042;6.812;2024-03-02T06:23:55;10.20;99.90
31967;DHT22;18496;52.042;6.812;2024-03-02T06:26:00;10.20;99.90
31967;DHT22;18496;52.042;6.812;2024-03-02T06:28:05;10.20;99.90
31967;DHT22;18496;52.042;6.812;2024-03-02T06:30:09;10.20;99.90
31967;DHT22;18496;52.042;6.812;2024-03-02T06:32:13;10.20;99.90
31967;DHT22;18496;52.042;6.812;2024-03-02T06:34:17;10.10;99.90
31967;DHT22;18496;52.042;6.812;2024-03-02T06:36:20;10.10;99.90
31967;DHT22;18496;52.042;6.812;2024-03-02T06:38:24;10.10;99.90
31967;DHT22;18496;52.042;6.812;2024-03-02T06:40:28;10.00;99.90
31967;DHT22;18496;52.042;6.812;2024-03-02T06:42:31;10.00;99.90
31967;DHT22;18496;52.042;6.812;2024-03-02T06:44:36;9.90;99.90
31967;DHT22;18496;52.042;6.812;2024-03-02T06:46:40;9.90;99.90
31967;DHT22;18496;52.042;6.812;2024-03-02T06:48:44;10.00;99.90
31967;DHT22;18496;52.042;6.812;2024-03-02T06:50:48;10.00;99.90
31967;DHT22;18496;52.042;6.812;2024-03-02T06:52:51;10.10;99.90
31967;DHT22;18496;52.042;6.812;2024-03-02T06:54:55;10.10;99.90
31967;DHT22;18496;52.042;6.812;2024-03-02T06:56:59;10.10;99.90
31967;DHT22;18496;52.042;6.812;2024-03-02T06:59:02;10.10;99.90
31967;DHT22;18496;52.042;6.812;2024-03-02T07:01:06;10.20;99.90
31967;DHT22;18496;52.042;6.812;2024-03-02T07:03:09;10.20;99.90
31967;DHT22;18496;52.042;6.812;2024-03-02T07:05:13;10.20;99.90
31967;DHT22;18496;52.042;6.812;2024-03-02T07:07:17;10.20;99.90
31967;DHT22;18496;52.042;6.812;2024-03-02T07:09:21;10.20;99.90
31967;DHT22;18496;52.042;6.812;2024-03-02T07:11:26;10.30;99.90
31967;DHT22;18496;52.042;6.812;2024-03-02T07:13:30;10.20;99.90
31967;DHT22;18496;52.042;6.812;2024-03-02T07:15:33;10.30;99.90
31967;DHT22;18496;52.042;6.812;2024-03-02T07:17:55;10.20;99.90
31967;DHT22;18496;52.042;6.812;2024-03-02T07:19:59;10.20;99.90
31967;DHT22;18496;52.042;6.812;2024-03-02T07:22:06;10.20;99.90
31967;DHT22;18496;52.042;6.812;2024-03-02T07:24:10;10.20;99.90
31967;DHT22;18496;52.042;6.812;2024-03-02T07:26:17;10.10;99.90
31967;DHT22;18496;52.042;6.812;2024-03-02T07:28:24;10.10;99.90
31967;DHT22;18496;52.042;6.812;2024-03-02T07:30:27;10.10;99.90
31967;DHT22;18496;52.042;6.812;2024-03-02T07:32:31;10.00;99.90
31967;DHT22;18496;52.042;6.812;2024-03-02T07:34:35;10.10;99.90
31967;DHT22;18496;52.042;6.812;2024-03-02T07:36:39;10.10;99.90
31967;DHT22;18496;52.042;6.812;2024-03-02T07:38:43;10.10;99.90
31967;DHT22;18496;52.042;6.812;2024-03-02T07:40:49;10.10;99.90
31967;DHT22;18496;52.042;6.812;2024-03-02T07:42:55;10.10;99.90
31967;DHT22;18496;52.042;6.812;2024-03-02T07:44:59;10.10;99.90
31967;DHT22;18496;52.042;6.812;2024-03-02T07:47:03;10.10;99.90
31967;DHT22;18496;52.042;6.812;2024-03-02T07:49:07;10.10;99.90
31967;DHT22;18496;52.042;6.812;2024-03-02T07:51:11;10.10;99.90
31967;DHT22;18496;52.042;6.812;2024-03-02T07:53:15;10.10;99.90
31967;DHT22;18496;52.042;6.812;2024-03-02T07:55:18;10.10;99.90
31967;DHT22;18496;52.042;6.812;2024-03-02T07:57:22;10.10;99.90
31967;DHT22;18496;52.042;6.812;2024-03-02T07:59:26;10.10;99.90
31967;DHT22;18496;52.042;6.812;2024-03-02T08:01:31;10.10;99.90
31967;DHT22;18496;52.042;6.812;2024-03-02T08:03:35;10.10;99.90
31967;DHT22;18496;52.042;6.812;2024-03-02T08:05:39;10.10;99.90
31967;DHT22;18496;52.042;6.812;2024-03-02T08:07:44;10.20;99.90
31967;DHT22;18496;52.042;6.812;2024-03-02T08:09:48;10.20;99.90
31967;DHT22;18496;52.042;6.812;2024-03-02T08:11:51;10.10;99.90
31967;DHT22;18496;52.042;6.812;2024-03-02T08:13:55;10.20;99.90
31967;DHT22;18496;52.042;6.812;2024-03-02T08:15:59;10.20;99.90
31967;DHT22;18496;52.042;6.812;2024-03-02T08:18:03;10.20;99.90
31967;DHT22;18496;52.042;6.812;2024-03-02T08:20:07;10.30;99.90
31967;DHT22;18496;52.042;6.812;2024-03-02T08:22:11;10.30;99.90
31967;DHT22;18496;52.042;6.812;2024-03-02T08:24:15;10.30;99.90
31967;DHT22;18496;52.042;6.812;2024-03-02T08:26:19;10.30;99.90
31967;DHT22;18496;52.042;6.812;2024-03-02T08:28:22;10.40;99.90
31967;DHT22;18496;52.042;6.812;2024-03-02T08:30:26;10.40;99.90
31967;DHT22;18496;52.042;6.812;2024-03-02T08:32:30;10.40;99.90
31967;DHT22;18496;52.042;6.812;2024-03-02T08:34:33;10.50;99.90
31967;DHT22;18496;52.042;6.812;2024-03-02T08:36:38;10.60;99.90
31967;DHT22;18496;52.042;6.812;2024-03-02T08:38:43;10.60;99.90
31967;DHT22;18496;52.042;6.812;2024-03-02T08:40:47;10.60;99.90
31967;DHT22;18496;52.042;6.812;2024-03-02T08:42:52;10.60;99.90
31967;DHT22;18496;52.042;6.812;2024-03-02T08:44:56;10.60;99.90
31967;DHT22;18496;52.042;6.812;2024-03-02T08:47:00;10.70;99.90
31967;DHT22;18496;52.042;6.812;2024-03-02T08:49:04;10.70;99.90
31967;DHT22;18496;52.042;6.812;2024-03-02T08:51:08;10.70;99.90
31967;DHT22;18496;52.042;6.812;2024-03-02T08:53:13;10.80;99.90
31967;DHT22;18496;52.042;6.812;2024-03-02T08:55:21;10.80;99.90
31967;DHT22;18496;52.042;6.812;2024-03-02T08:57:25;10.80;99.90
31967;DHT22;18496;52.042;6.812;2024-03-02T08:59:29;10.90;99.90
31967;DHT22;18496;52.042;6.812;2024-03-02T09:01:33;10.90;99.90
31967;DHT22;18496;52.042;6.812;2024-03-02T09:03:36;10.90;99.90
31967;DHT22;18496;52.042;6.812;2024-03-02T09:05:40;10.90;99.90
31967;DHT22;18496;52.042;6.812;2024-03-02T09:07:44;11.00;99.90
31967;DHT22;18496;52.042;6.812;2024-03-02T09:09:48;11.00;99.90
31967;DHT22;18496;52.042;6.812;2024-03-02T09:11:52;11.00;99.90
31967;DHT22;18496;52.042;6.812;2024-03-02T09:13:58;11.00;99.90
31967;DHT22;18496;52.042;6.812;2024-03-02T09:16:02;11.00;99.90
31967;DHT22;18496;52.042;6.812;2024-03-02T09:18:06;11.10;99.90
31967;DHT22;18496;52.042;6.812;2024-03-02T09:20:10;11.10;99.90
31967;DHT22;18496;52.042;6.812;2024-03-02T09:22:14;11.20;99.90
31967;DHT22;18496;52.042;6.812;2024-03-02T09:24:18;11.20;99.90
31967;DHT22;18496;52.042;6.812;2024-03-02T09:26:22;11.20;99.90
31967;DHT22;18496;52.042;6.812;2024-03-02T09:28:26;11.30;99.90
31967;DHT22;18496;52.042;6.812;2024-03-02T09:30:29;11.30;99.90
31967;DHT22;18496;52.042;6.812;2024-03-02T09:32:33;11.30;99.90
31967;DHT22;18496;52.042;6.812;2024-03-02T09:34:37;11.40;99.90
31967;DHT22;18496;52.042;6.812;2024-03-02T09:36:40;11.40;99.90
31967;DHT22;18496;52.042;6.812;2024-03-02T09:38:44;11.40;99.90
31967;DHT22;18496;52.042;6.812;2024-03-02T09:40:48;11.50;99.90
31967;DHT22;18496;52.042;6.812;2024-03-02T09:42:52;11.50;99.90
31967;DHT22;18496;52.042;6.812;2024-03-02T09:44:57;11.60;99.90
31967;DHT22;18496;52.042;6.812;2024-03-02T09:47:01;11.60;99.90
31967;DHT22;18496;52.042;6.812;2024-03-02T09:49:04;11.60;99.90
31967;DHT22;18496;52.042;6.812;2024-03-02T09:51:08;11.70;99.90
31967;DHT22;18496;52.042;6.812;2024-03-02T09:53:12;11.70;99.90
31967;DHT22;18496;52.042;6.812;2024-03-02T09:55:17;11.70;99.90
31967;DHT22;18496;52.042;6.812;2024-03-02T09:57:22;11.80;99.90
31967;DHT22;18496;52.042;6.812;2024-03-02T09:59:26;11.90;99.90
31967;DHT22;18496;52.042;6.812;2024-03-02T10:01:31;12.00;99.90
31967;DHT22;18496;52.042;6.812;2024-03-02T10:03:36;12.10;99.90
31967;DHT22;18496;52.042;6.812;2024-03-02T10:05:40;12.10;99.90
31967;DHT22;18496;52.042;6.812;2024-03-02T10:07:59;12.20;99.90
31967;DHT22;18496;52.042;6.812;2024-03-02T10:10:14;12.20;99.90
31967;DHT22;18496;52.042;6.812;2024-03-02T10:12:18;12.30;99.90
31967;DHT22;18496;52.042;6.812;2024-03-02T10:14:22;12.20;99.90
31967;DHT22;18496;52.042;6.812;2024-03-02T10:16:25;12.30;99.90
31967;DHT22;18496;52.042;6.812;2024-03-02T10:18:29;12.30;99.90
31967;DHT22;18496;52.042;6.812;2024-03-02T10:20:34;12.30;99.90
31967;DHT22;18496;52.042;6.812;2024-03-02T10:22:38;12.30;99.90
31967;DHT22;18496;52.042;6.812;2024-03-02T10:24:43;12.30;99.90
31967;DHT22;18496;52.042;6.812;2024-03-02T10:26:48;12.30;99.90
31967;DHT22;18496;52.042;6.812;2024-03-02T10:28:52;12.40;99.90
31967;DHT22;18496;52.042;6.812;2024-03-02T10:31:02;12.50;99.90
31967;DHT22;18496;52.042;6.812;2024-03-02T10:33:06;12.50;99.90
31967;DHT22;18496;52.042;6.812;2024-03-02T10:35:10;12.50;99.90
31967;DHT22;18496;52.042;6.812;2024-03-02T10:37:15;12.60;99.90
31967;DHT22;18496;52.042;6.812;2024-03-02T10:39:19;12.60;99.90
31967;DHT22;18496;52.042;6.812;2024-03-02T10:41:24;12.70;99.90
31967;DHT22;18496;52.042;6.812;2024-03-02T10:43:28;12.70;99.90
31967;DHT22;18496;52.042;6.812;2024-03-02T10:45:32;12.80;99.90
31967;DHT22;18496;52.042;6.812;2024-03-02T10:47:36;12.90;99.90
31967;DHT22;18496;52.042;6.812;2024-03-02T10:49:42;12.90;99.90
31967;DHT22;18496;52.042;6.812;2024-03-02T10:51:46;13.00;99.90
31967;DHT22;18496;52.042;6.812;2024-03-02T10:53:50;13.00;99.90
31967;DHT22;18496;52.042;6.812;2024-03-02T10:55:58;13.00;99.90
31967;DHT22;18496;52.042;6.812;2024-03-02T10:58:06;13.10;99.90
31967;DHT22;18496;52.042;6.812;2024-03-02T11:00:13;13.10;99.90
31967;DHT22;18496;52.042;6.812;2024-03-02T11:02:21;13.10;99.90
31967;DHT22;18496;52.042;6.812;2024-03-02T11:04:27;13.20;99.90
31967;DHT22;18496;52.042;6.812;2024-03-02T11:06:32;13.30;99.90
31967;DHT22;18496;52.042;6.812;2024-03-02T11:08:40;13.30;99.90
31967;DHT22;18496;52.042;6.812;2024-03-02T11:10:57;13.40;99.90
31967;DHT22;18496;52.042;6.812;2024-03-02T11:13:05;13.50;99.90
31967;DHT22;18496;52.042;6.812;2024-03-02T11:15:10;13.50;99.90
31967;DHT22;18496;52.042;6.812;2024-03-02T11:17:17;13.50;99.90
31967;DHT22;18496;52.042;6.812;2024-03-02T11:19:21;13.50;99.90
31967;DHT22;18496;52.042;6.812;2024-03-02T11:21:25;13.60;99.90
31967;DHT22;18496;52.042;6.812;2024-03-02T11:23:33;13.60;99.90
31967;DHT22;18496;52.042;6.812;2024-03-02T11:25:37;13.60;99.90
31967;DHT22;18496;52.042;6.812;2024-03-02T11:29:49;13.70;99.90
31967;DHT22;18496;52.042;6.812;2024-03-02T11:31:59;13.70;99.90
31967;DHT22;18496;52.042;6.812;2024-03-02T11:34:32;13.80;99.90
31967;DHT22;18496;52.042;6.812;2024-03-02T11:36:36;13.80;99.90
31967;DHT22;18496;52.042;6.812;2024-03-02T11:38:43;13.90;99.90
31967;DHT22;18496;52.042;6.812;2024-03-02T11:40:48;13.90;99.90
31967;DHT22;18496;52.042;6.812;2024-03-02T11:42:53;14.00;99.80
31967;DHT22;18496;52.042;6.812;2024-03-02T11:44:57;14.00;99.10
31967;DHT22;18496;52.042;6.812;2024-03-02T11:47:02;14.00;99.50
31967;DHT22;18496;52.042;6.812;2024-03-02T11:49:06;14.10;99.20
31967;DHT22;18496;52.042;6.812;2024-03-02T11:51:11;14.10;98.90
31967;DHT22;18496;52.042;6.812;2024-03-02T11:53:16;14.10;99.70
31967;DHT22;18496;52.042;6.812;2024-03-02T11:55:21;14.10;99.50
31967;DHT22;18496;52.042;6.812;2024-03-02T11:57:26;14.20;99.50
31967;DHT22;18496;52.042;6.812;2024-03-02T11:59:31;14.30;99.30
31967;DHT22;18496;52.042;6.812;2024-03-02T12:01:35;14.40;98.80
31967;DHT22;18496;52.042;6.812;2024-03-02T12:03:39;14.40;98.40
31967;DHT22;18496;52.042;6.812;2024-03-02T12:05:43;14.50;98.50
31967;DHT22;18496;52.042;6.812;2024-03-02T12:07:47;14.40;98.20
31967;DHT22;18496;52.042;6.812;2024-03-02T12:10:01;14.50;98.50
31967;DHT22;18496;52.042;6.812;2024-03-02T12:12:09;14.60;98.40
31967;DHT22;18496;52.042;6.812;2024-03-02T12:14:13;14.60;97.80
31967;DHT22;18496;52.042;6.812;2024-03-02T12:16:25;14.60;97.80
31967;DHT22;18496;52.042;6.812;2024-03-02T12:18:29;14.70;97.70
31967;DHT22;18496;52.042;6.812;2024-03-02T12:20:33;14.80;97.50
31967;DHT22;18496;52.042;6.812;2024-03-02T12:22:37;14.80;97.50
31967;DHT22;18496;52.042;6.812;2024-03-02T12:24:41;14.90;97.80
31967;DHT22;18496;52.042;6.812;2024-03-02T12:26:45;15.00;97.80
31967;DHT22;18496;52.042;6.812;2024-03-02T12:28:50;15.00;96.70
31967;DHT22;18496;52.042;6.812;2024-03-02T12:30:55;15.10;96.20
31967;DHT22;18496;52.042;6.812;2024-03-02T12:32:58;15.20;95.20
31967;DHT22;18496;52.042;6.812;2024-03-02T12:35:04;15.20;95.80
31967;DHT22;18496;52.042;6.812;2024-03-02T12:37:12;15.30;96.10
31967;DHT22;18496;52.042;6.812;2024-03-02T12:39:17;15.40;96.10
31967;DHT22;18496;52.042;6.812;2024-03-02T12:41:21;15.40;95.80
31967;DHT22;18496;52.042;6.812;2024-03-02T12:43:31;15.50;96.20
31967;DHT22;18496;52.042;6.812;2024-03-02T12:45:36;15.50;96.20
31967;DHT22;18496;52.042;6.812;2024-03-02T12:47:40;15.50;96.10
31967;DHT22;18496;52.042;6.812;2024-03-02T12:49:53;15.60;95.40
31967;DHT22;18496;52.042;6.812;2024-03-02T12:52:05;15.70;94.70
31967;DHT22;18496;52.042;6.812;2024-03-02T12:54:10;15.80;95.00
31967;DHT22;18496;52.042;6.812;2024-03-02T12:56:24;15.70;94.40
31967;DHT22;18496;52.042;6.812;2024-03-02T12:58:28;15.70;94.50
31967;DHT22;18496;52.042;6.812;2024-03-02T13:00:34;15.70;93.90
31967;DHT22;18496;52.042;6.812;2024-03-02T13:02:42;15.80;93.90
31967;DHT22;18496;52.042;6.812;2024-03-02T13:04:53;15.80;93.50
31967;DHT22;18496;52.042;6.812;2024-03-02T13:06:59;15.80;94.60
31967;DHT22;18496;52.042;6.812;2024-03-02T13:09:05;15.70;93.80
31967;DHT22;18496;52.042;6.812;2024-03-02T13:11:13;15.70;93.60
31967;DHT22;18496;52.042;6.812;2024-03-02T13:13:17;15.80;94.00
31967;DHT22;18496;52.042;6.812;2024-03-02T13:15:21;15.80;94.50
31967;DHT22;18496;52.042;6.812;2024-03-02T13:17:24;15.90;94.00